This is the latest recevied weather packets stored in our database for station/object KJ6APE. If no packets are shown the sender has not sent any weather packets the latest 10 day(s).
| Time | Temp. | Humidity | Pressure | Rain* | Wind** | Luminosity | Snow |
|---|---|---|---|---|---|---|---|
| 1777407334 | 22.78° C | 42% | 1019.7 hPa | 0 mm | - | 1066 W/m² | - |
| 1777407029 | 23.33° C | 41% | 1019.5 hPa | 0 mm | - | 1050 W/m² | - |
| 1777406725 | 22.22° C | 42% | 1019.6 hPa | 0 mm | - | 1029 W/m² | - |
| 1777406420 | 21.67° C | 46% | 1019.8 hPa | 0 mm | - | 998 W/m² | - |
| 1777406119 | 21.67° C | 45% | 1020 hPa | 0 mm | - | 986 W/m² | - |
| 1777405816 | 21.67° C | 46% | 1019.8 hPa | 0 mm | - | 993 W/m² | - |
| 1777405512 | 21.67° C | 44% | 1019.8 hPa | 0 mm | - | 986 W/m² | - |
| 1777405210 | 21.11° C | 45% | 1020.1 hPa | 0 mm | - | 972 W/m² | - |
| 1777404908 | 21.11° C | 47% | 1020 hPa | 0 mm | - | 966 W/m² | - |
| 1777404604 | 21.11° C | 47% | 1020.2 hPa | 0 mm | - | 959 W/m² | - |
| 1777404301 | 21.67° C | 44% | 1020.1 hPa | 0 mm | - | 948 W/m² | - |
| 1777403997 | 21.11° C | 46% | 1020.3 hPa | 0 mm | - | 941 W/m² | - |
| 1777403692 | 21.67° C | 43% | 1020 hPa | 0 mm | - | 932 W/m² | - |
| 1777403391 | 21.11° C | 45% | 1020.2 hPa | 0 mm | - | 925 W/m² | - |
| 1777403085 | 20.56° C | 48% | 1020.4 hPa | 0 mm | - | 915 W/m² | - |
| 1777402781 | 20° C | 50% | 1020.2 hPa | 0 mm | - | 906 W/m² | - |
| 1777402478 | 20.56° C | 48% | 1020.3 hPa | 0 mm | - | 894 W/m² | - |
| 1777402176 | 20° C | 52% | 1020.2 hPa | 0 mm | - | 887 W/m² | - |
| 1777401870 | 20° C | 51% | 1020.3 hPa | 0 mm | - | 863 W/m² | - |
| 1777401570 | 20° C | 50% | 1020.6 hPa | 0 mm | - | 867 W/m² | - |
| 1777401266 | 20.56° C | 51% | 1020.3 hPa | 0 mm | - | 860 W/m² | - |
| 1777400961 | 20.56° C | 51% | 1020.7 hPa | 0 mm | - | 851 W/m² | - |
| 1777400658 | 20° C | 50% | 1020.5 hPa | 0 mm | - | 836 W/m² | - |
| 1777400356 | 19.44° C | 52% | 1020.7 hPa | 0 mm | - | 829 W/m² | - |
| 1777400051 | 19.44° C | 52% | 1020.5 hPa | 0 mm | - | 818 W/m² | - |
* Rain latest hour (hover to see other rain measurements)
** Current wind speed in m/s (hover to see current wind gust speed)